createdAt,value
2022-11-19T00:01:06.922Z,101046.25
2022-11-19T00:03:35.001Z,101046.41
2022-11-19T00:06:13.004Z,101050.97
2022-11-19T00:08:40.114Z,101060.44
2022-11-19T00:11:12.598Z,101065.69
2022-11-19T00:13:40.732Z,101072.50
2022-11-19T00:16:12.308Z,101073.94
2022-11-19T00:18:39.781Z,101073.78
2022-11-19T00:21:11.425Z,101079.78
2022-11-19T00:23:39.130Z,101082.06
2022-11-19T00:26:05.597Z,101092.47
2022-11-19T00:28:32.386Z,101100.97
2022-11-19T00:31:08.646Z,101104.16
2022-11-19T00:33:36.064Z,101110.94
2022-11-19T00:36:03.298Z,101120.69
2022-11-19T00:38:30.416Z,101140.69
2022-11-19T00:40:57.086Z,101138.97
2022-11-19T00:43:42.924Z,101138.69
2022-11-19T00:46:10.087Z,101136.38
2022-11-19T00:48:38.131Z,101142.41
2022-11-19T00:51:05.872Z,101133.88
2022-11-19T00:53:32.391Z,101145.00
2022-11-19T00:56:08.268Z,101154.44
2022-11-19T00:58:34.739Z,101146.56
2022-11-19T01:01:01.214Z,101163.91
2022-11-19T01:03:27.742Z,101170.84
2022-11-19T01:05:54.191Z,101174.31
2022-11-19T01:08:20.725Z,101164.75
2022-11-19T01:10:47.174Z,101163.91
2022-11-19T01:13:32.974Z,101168.34
2022-11-19T01:15:59.618Z,101167.66
2022-11-19T01:18:27.721Z,101168.53
2022-11-19T01:20:54.930Z,101164.25
2022-11-19T01:23:21.434Z,101172.94
2022-11-19T01:25:47.960Z,101185.66
2022-11-19T01:28:14.444Z,101175.88
2022-11-19T01:30:43.063Z,101179.66
2022-11-19T01:33:10.187Z,101183.97
2022-11-19T01:35:36.789Z,101180.50
2022-11-19T01:38:04.445Z,101183.84
2022-11-19T01:40:31.534Z,101195.16
2022-11-19T01:42:57.967Z,101203.78
2022-11-19T01:45:31.341Z,101265.63
2022-11-19T01:48:02.537Z,101291.78
2022-11-19T01:50:32.429Z,101300.38
2022-11-19T01:52:59.870Z,101315.13
2022-11-19T01:55:28.385Z,101315.25
2022-11-19T01:57:59.923Z,101307.88
2022-11-19T02:00:27.273Z,101303.25
2022-11-19T02:02:54.417Z,101318.47
2022-11-19T02:05:21.915Z,101316.06
2022-11-19T02:07:54.925Z,101314.44
2022-11-19T02:10:59.517Z,101322.28
2022-11-19T02:13:39.671Z,101323.88
2022-11-19T02:16:16.373Z,101340.38
2022-11-19T02:18:46.430Z,101342.94
2022-11-19T02:21:37.374Z,101340.25
2022-11-19T02:24:15.841Z,101343.72
2022-11-19T02:26:54.402Z,101343.66
2022-11-19T02:29:47.264Z,101346.75
2022-11-19T02:32:18.375Z,101346.84
2022-11-19T02:35:01.184Z,101348.44
2022-11-19T02:37:47.873Z,101353.75
2022-11-19T02:40:33.201Z,101360.00
2022-11-19T02:43:13.664Z,101349.69
2022-11-19T02:45:47.024Z,101363.00
2022-11-19T02:48:32.046Z,101362.06
2022-11-19T02:51:01.626Z,101364.56
2022-11-19T02:53:28.090Z,101362.91
2022-11-19T02:56:12.869Z,101368.94
2022-11-19T02:59:11.480Z,101362.97
2022-11-19T03:02:00.782Z,101348.47
2022-11-19T03:04:32.451Z,101337.75
2022-11-19T03:07:09.756Z,101332.75
2022-11-19T03:09:41.845Z,101316.47
2022-11-19T03:12:19.468Z,101321.00
2022-11-19T03:15:19.813Z,101323.03
2022-11-19T03:17:58.197Z,101318.84
2022-11-19T03:20:41.496Z,101322.59
2022-11-19T03:23:19.853Z,101326.22
2022-11-19T03:25:58.440Z,101324.56
2022-11-19T03:28:32.692Z,101318.44
2022-11-19T03:31:00.950Z,101333.28
2022-11-19T03:33:41.917Z,101325.47
2022-11-19T03:36:16.894Z,101331.63
2022-11-19T03:38:49.265Z,101329.09
2022-11-19T03:41:18.957Z,101324.91
2022-11-19T03:43:52.062Z,101319.75
2022-11-19T03:46:23.016Z,101321.56
2022-11-19T03:48:54.220Z,101323.31
2022-11-19T03:51:41.827Z,101323.41
2022-11-19T03:54:08.677Z,101333.16
2022-11-19T03:56:38.280Z,101334.91
2022-11-19T03:59:07.775Z,101332.34
2022-11-19T04:01:36.643Z,101330.63
2022-11-19T04:04:22.371Z,101328.13
2022-11-19T04:06:48.901Z,101330.91
2022-11-19T04:09:15.514Z,101330.03
2022-11-19T04:11:43.334Z,101334.34
2022-11-19T04:14:09.800Z,101336.13
2022-11-19T04:16:36.217Z,101343.00
2022-11-19T04:19:02.659Z,101346.66
2022-11-19T04:21:29.142Z,101352.94
2022-11-19T04:23:55.541Z,101359.84
2022-11-19T04:26:21.962Z,101351.25
2022-11-19T04:28:48.386Z,101368.59
2022-11-19T04:31:17.900Z,101367.72
2022-11-19T04:33:44.609Z,101378.06
2022-11-19T04:36:11.083Z,101372.84
2022-11-19T04:38:37.499Z,101380.66
2022-11-19T04:41:03.917Z,101382.31
2022-11-19T04:43:30.338Z,101380.66
2022-11-19T04:45:56.749Z,101378.88
2022-11-19T04:48:23.160Z,101383.28
2022-11-19T04:50:49.589Z,101380.66
2022-11-19T04:53:16.053Z,101378.03
2022-11-19T04:55:42.478Z,101376.44
2022-11-19T04:58:09.047Z,101369.44
2022-11-19T05:00:35.463Z,101367.72
2022-11-19T05:03:01.906Z,101360.00
2022-11-19T05:05:28.318Z,101368.78
2022-11-19T05:07:54.757Z,101368.84
2022-11-19T05:10:21.353Z,101357.50
2022-11-19T05:12:47.811Z,101355.91
2022-11-19T05:15:14.258Z,101354.19
2022-11-19T05:17:40.709Z,101358.41
2022-11-19T05:20:08.066Z,101355.03
2022-11-19T05:22:34.654Z,101346.38
2022-11-19T05:25:01.158Z,101357.72
2022-11-19T05:27:27.600Z,101347.22
2022-11-19T05:29:53.987Z,101352.31
2022-11-19T05:32:20.595Z,101345.34
2022-11-19T05:34:47.018Z,101346.16
2022-11-19T05:37:13.444Z,101341.03
2022-11-19T05:39:39.881Z,101342.84
2022-11-19T05:42:06.281Z,101336.81
2022-11-19T05:44:32.698Z,101341.13
2022-11-19T05:46:59.861Z,101350.72
2022-11-19T05:49:26.334Z,101347.16
2022-11-19T05:51:52.730Z,101341.97
2022-11-19T05:54:19.156Z,101342.78
2022-11-19T05:56:45.674Z,101342.03
2022-11-19T05:59:12.067Z,101344.38
2022-11-19T06:01:39.488Z,101344.31
2022-11-19T06:04:05.883Z,101343.56
2022-11-19T06:06:32.305Z,101333.41
2022-11-19T06:08:58.914Z,101337.88
2022-11-19T06:11:43.843Z,101340.47
2022-11-19T06:14:10.252Z,101335.25
2022-11-19T06:16:36.654Z,101345.81
2022-11-19T06:19:03.057Z,101357.19
2022-11-19T06:21:29.461Z,101359.84
2022-11-19T06:23:55.886Z,101367.69
2022-11-19T06:26:26.635Z,101373.78
2022-11-19T06:28:53.248Z,101374.75
2022-11-19T06:31:20.296Z,101374.75
2022-11-19T06:33:46.992Z,101388.69
2022-11-19T06:36:13.726Z,101400.03
2022-11-19T06:38:40.492Z,101405.25
2022-11-19T06:41:06.963Z,101417.44
2022-11-19T06:43:33.541Z,101431.34
2022-11-19T06:45:59.939Z,101427.84
2022-11-19T06:48:26.356Z,101434.88
2022-11-19T06:50:52.742Z,101444.34
2022-11-19T06:53:19.182Z,101447.00
2022-11-19T06:55:45.592Z,101440.94
2022-11-19T06:58:12.012Z,101445.25
2022-11-19T07:00:38.402Z,101440.84
2022-11-19T07:03:04.839Z,101447.78
2022-11-19T07:05:31.283Z,101466.81
2022-11-19T07:08:02.834Z,101467.69
2022-11-19T07:10:29.974Z,101464.22
2022-11-19T07:12:56.388Z,101478.94
2022-11-19T07:15:22.806Z,101475.53
2022-11-19T07:17:49.245Z,101470.38
2022-11-19T07:20:16.655Z,101466.00
2022-11-19T07:22:43.425Z,101475.47
2022-11-19T07:25:13.146Z,101476.31
2022-11-19T07:27:41.563Z,101470.22
2022-11-19T07:30:09.236Z,101466.63
2022-11-19T07:32:36.362Z,101458.75
2022-11-19T07:35:02.927Z,101463.88
2022-11-19T07:37:29.466Z,101455.16
2022-11-19T07:39:55.949Z,101451.44
2022-11-19T07:42:41.071Z,101443.50
2022-11-19T07:45:08.265Z,101426.59
2022-11-19T07:47:35.136Z,101402.19
2022-11-19T07:50:02.041Z,101386.22
2022-11-19T07:52:28.633Z,101378.34
2022-11-19T07:54:55.439Z,101370.28
2022-11-19T07:57:27.188Z,101351.84
2022-11-19T07:59:56.449Z,101348.69
2022-11-19T08:02:22.863Z,101336.19
2022-11-19T08:04:49.350Z,101301.88
2022-11-19T08:07:16.058Z,101288.81
2022-11-19T08:09:42.712Z,101260.69
2022-11-19T08:12:09.253Z,101242.03
2022-11-19T08:14:35.903Z,101242.97
2022-11-19T08:17:21.143Z,101198.88
2022-11-19T08:19:47.692Z,101183.81
2022-11-19T08:22:14.311Z,101156.31
2022-11-19T08:24:40.811Z,101142.75
2022-11-19T08:27:07.444Z,101132.72
2022-11-19T08:29:33.978Z,101121.81
2022-11-19T08:32:00.675Z,101116.91
2022-11-19T08:34:27.209Z,101114.16
2022-11-19T08:36:53.636Z,101104.13
2022-11-19T08:39:20.097Z,101109.19
2022-11-19T08:42:05.194Z,101100.25
2022-11-19T08:44:31.670Z,101057.91
2022-11-19T08:46:58.045Z,101053.38
2022-11-19T08:49:24.454Z,101051.56
2022-11-19T08:51:50.883Z,101045.94
2022-11-19T08:54:17.919Z,101046.66
2022-11-19T08:56:45.175Z,101016.06
2022-11-19T08:59:11.578Z,101013.22
2022-11-19T09:01:38.030Z,101018.66
2022-11-19T09:04:04.669Z,101016.78
2022-11-19T09:06:34.234Z,101016.28
2022-11-19T09:09:01.209Z,101019.63
2022-11-19T09:11:27.646Z,101015.22
2022-11-19T09:13:55.074Z,101018.13
2022-11-19T09:16:21.563Z,101028.28
2022-11-19T09:18:47.987Z,101031.47
2022-11-19T09:21:15.073Z,101032.75
2022-11-19T09:23:42.592Z,101019.25
2022-11-19T09:26:13.170Z,101031.41
2022-11-19T09:28:39.975Z,101027.22
2022-11-19T09:31:09.274Z,101020.25
2022-11-19T09:33:38.238Z,101013.19
2022-11-19T09:36:05.366Z,101004.97
2022-11-19T09:38:34.778Z,101009.63
2022-11-19T09:41:20.633Z,100994.25
2022-11-19T09:44:11.928Z,100986.34
2022-11-19T09:47:04.746Z,100983.38
2022-11-19T09:49:54.250Z,100977.53
2022-11-19T09:52:24.986Z,100969.00
2022-11-19T09:54:56.586Z,100955.50
2022-11-19T09:57:39.955Z,100958.00
2022-11-19T10:00:08.190Z,100965.88
2022-11-19T10:02:34.868Z,100950.75
2022-11-19T10:05:01.643Z,100953.88
2022-11-19T10:07:56.287Z,100954.25
2022-11-19T10:11:01.912Z,100950.06
2022-11-19T10:13:52.302Z,100948.19
2022-11-19T10:16:27.863Z,100959.75
2022-11-19T10:19:32.388Z,100942.25
2022-11-19T10:22:23.473Z,100941.84
2022-11-19T10:25:02.018Z,100946.94
2022-11-19T10:27:42.776Z,100938.75
2022-11-19T10:30:16.319Z,100931.75
2022-11-19T10:32:47.058Z,100937.72
2022-11-19T10:35:21.164Z,100943.75
2022-11-19T10:38:00.363Z,100941.81
2022-11-19T10:40:40.091Z,100933.44
2022-11-19T10:43:23.989Z,100954.78
2022-11-19T10:45:50.764Z,100956.19
2022-11-19T10:48:23.314Z,100942.84
2022-11-19T10:50:50.945Z,100940.50
2022-11-19T10:53:36.483Z,100926.63
2022-11-19T10:56:41.212Z,100941.19
2022-11-19T10:59:18.980Z,100931.31
2022-11-19T11:01:50.448Z,100933.84
2022-11-19T11:04:21.282Z,100925.03
2022-11-19T11:06:57.434Z,100913.53
2022-11-19T11:09:33.149Z,100910.03
2022-11-19T11:12:40.388Z,100911.88
2022-11-19T11:15:21.922Z,100919.69
2022-11-19T11:18:00.691Z,100904.16
2022-11-19T11:20:28.840Z,100891.97
2022-11-19T11:23:17.009Z,100897.91
2022-11-19T11:26:02.263Z,100898.31
2022-11-19T11:28:29.749Z,100884.56
2022-11-19T11:31:09.274Z,100888.69
2022-11-19T11:33:39.105Z,100891.44
2022-11-19T11:36:19.540Z,100881.13
2022-11-19T11:38:52.337Z,100882.50
2022-11-19T11:44:19.967Z,100869.19
2022-11-19T11:46:48.946Z,100861.38
2022-11-19T11:49:27.935Z,100861.47
2022-11-19T11:52:14.981Z,100867.91
2022-11-19T11:54:55.961Z,100849.59
2022-11-19T11:57:25.627Z,100836.09
2022-11-19T11:59:52.056Z,100824.81
2022-11-19T12:02:23.424Z,100824.00
2022-11-19T12:04:51.066Z,100822.00
2022-11-19T12:07:26.559Z,100810.94
2022-11-19T12:10:25.011Z,100819.41
2022-11-19T12:13:29.237Z,100820.09
2022-11-19T12:16:29.533Z,100827.41
2022-11-19T12:19:29.478Z,100815.38
2022-11-19T12:22:15.502Z,100822.00
2022-11-19T12:24:53.774Z,100819.50
2022-11-19T12:27:20.141Z,100816.31
2022-11-19T12:30:09.404Z,100828.53
2022-11-19T12:33:06.706Z,100824.19
2022-11-19T12:35:49.524Z,100823.06
2022-11-19T12:38:39.168Z,100830.72
2022-11-19T12:41:34.434Z,100817.56
2022-11-19T12:44:03.527Z,100826.94
2022-11-19T12:46:54.026Z,100832.34
2022-11-19T12:49:29.582Z,100830.09
2022-11-19T12:52:24.083Z,100833.97
2022-11-19T12:55:25.741Z,100822.06
2022-11-19T12:58:14.052Z,100819.72
2022-11-19T13:00:58.150Z,100818.22
2022-11-19T13:03:46.003Z,100819.31
2022-11-19T13:06:28.729Z,100830.75
2022-11-19T13:09:01.087Z,100836.41
2022-11-19T13:11:44.707Z,100836.81
2022-11-19T13:14:20.177Z,100842.56
2022-11-19T13:16:47.357Z,100836.25
2022-11-19T13:19:23.673Z,100846.88
2022-11-19T13:21:55.246Z,100849.53
2022-11-19T13:24:39.097Z,100836.81
2022-11-19T13:27:17.667Z,100835.41
2022-11-19T13:29:58.995Z,100843.69
2022-11-19T13:32:48.436Z,100835.50
2022-11-19T13:35:28.985Z,100822.13
2022-11-19T13:38:05.446Z,100817.28
2022-11-19T13:40:40.768Z,100820.34
2022-11-19T13:43:33.449Z,100828.31
2022-11-19T13:46:08.975Z,100831.38
2022-11-19T13:48:42.054Z,100832.03
2022-11-19T13:51:29.060Z,100839.78
2022-11-19T13:54:02.606Z,100851.72
2022-11-19T13:56:57.210Z,100840.00
2022-11-19T13:59:29.421Z,100840.09
2022-11-19T14:02:17.562Z,100841.19
2022-11-19T14:05:02.699Z,100833.41
2022-11-19T14:07:46.056Z,100824.69
2022-11-19T14:10:27.587Z,100830.06
2022-11-19T14:13:17.868Z,100823.25
2022-11-19T14:16:16.356Z,100822.53
2022-11-19T14:19:07.966Z,100826.00
2022-11-19T14:21:52.960Z,100815.50
2022-11-19T14:24:44.021Z,100827.63
2022-11-19T14:27:17.204Z,100831.91
2022-11-19T14:29:43.582Z,100832.75
2022-11-19T14:32:09.955Z,100834.88
2022-11-19T14:35:00.641Z,100830.66
2022-11-19T14:37:34.261Z,100830.28
2022-11-19T14:40:12.616Z,100831.66
2022-11-19T14:43:19.527Z,100822.00
2022-11-19T14:46:00.950Z,100823.78
2022-11-19T14:48:29.694Z,100815.03
2022-11-19T14:51:11.042Z,100809.28
2022-11-19T14:53:55.402Z,100805.88
2022-11-19T14:56:23.162Z,100807.97
2022-11-19T14:59:02.714Z,100804.63
2022-11-19T15:01:29.170Z,100804.63
2022-11-19T15:04:00.235Z,100796.31
2022-11-19T15:06:28.073Z,100791.00
2022-11-19T15:09:01.843Z,100784.31
2022-11-19T15:11:58.694Z,100782.84
2022-11-19T15:14:28.111Z,100772.44
2022-11-19T15:16:56.369Z,100760.84
2022-11-19T15:20:16.831Z,100759.94
2022-11-19T15:22:52.060Z,100757.25
2022-11-19T15:25:29.789Z,100750.19
2022-11-19T15:28:13.050Z,100760.03
2022-11-19T15:30:49.147Z,100749.53
2022-11-19T15:33:49.838Z,100742.13
2022-11-19T15:36:55.409Z,100747.38
2022-11-19T15:39:39.377Z,100747.59
2022-11-19T15:42:12.374Z,100742.88
2022-11-19T15:44:59.201Z,100730.19
2022-11-19T15:47:33.669Z,100731.91
2022-11-19T15:50:02.575Z,100720.69
2022-11-19T15:52:31.996Z,100730.41
2022-11-19T15:55:12.841Z,100721.34
2022-11-19T15:57:43.776Z,100711.72
2022-11-19T16:00:21.916Z,100714.56
2022-11-19T16:02:53.206Z,100708.25
2022-11-19T16:05:21.611Z,100706.63
2022-11-19T16:07:49.416Z,100699.19
2022-11-19T16:10:22.563Z,100708.09
2022-11-19T16:13:12.892Z,100708.53
2022-11-19T16:16:06.467Z,100709.34
2022-11-19T16:18:33.017Z,100699.50
2022-11-19T16:20:59.997Z,100701.72
2022-11-19T16:23:27.713Z,100712.31
2022-11-19T16:25:54.422Z,100713.69
2022-11-19T16:28:27.677Z,100707.88
2022-11-19T16:30:59.955Z,100710.34
2022-11-19T16:33:28.773Z,100699.91
2022-11-19T16:36:18.772Z,100693.13
2022-11-19T16:38:51.026Z,100682.56
2022-11-19T16:41:38.262Z,100678.25
2022-11-19T16:44:09.188Z,100685.06
2022-11-19T16:46:36.168Z,100665.91
2022-11-19T16:49:04.107Z,100659.50
2022-11-19T16:51:52.150Z,100669.34
2022-11-19T16:54:37.275Z,100664.50
2022-11-19T16:57:05.587Z,100667.84
2022-11-19T16:59:33.454Z,100668.44
2022-11-19T17:02:00.325Z,100661.81
2022-11-19T17:04:30.154Z,100654.91
2022-11-19T17:07:00.298Z,100660.78
2022-11-19T17:09:47.325Z,100668.97
2022-11-19T17:12:28.205Z,100665.88
2022-11-19T17:15:21.871Z,100668.44
2022-11-19T17:17:48.637Z,100662.41
2022-11-19T17:20:26.979Z,100664.03
2022-11-19T17:22:54.054Z,100646.28
2022-11-19T17:25:20.537Z,100648.34
2022-11-19T17:27:54.378Z,100645.31
2022-11-19T17:30:25.153Z,100654.56
2022-11-19T17:33:01.289Z,100643.03
2022-11-19T17:35:37.405Z,100646.75
2022-11-19T17:38:19.651Z,100648.28
2022-11-19T17:40:50.416Z,100646.19
2022-11-19T17:43:43.258Z,100644.34
2022-11-19T17:46:10.414Z,100643.75
2022-11-19T17:48:41.634Z,100643.28
2022-11-19T17:51:26.736Z,100636.91
2022-11-19T17:53:55.261Z,100641.00
2022-11-19T17:56:27.177Z,100636.13
2022-11-19T17:58:54.655Z,100640.44
2022-11-19T18:01:22.054Z,100634.34
2022-11-19T18:03:48.643Z,100639.41
2022-11-19T18:06:17.271Z,100645.38
2022-11-19T18:08:44.187Z,100646.16
2022-11-19T18:11:13.351Z,100642.59
2022-11-19T18:13:41.208Z,100654.03
2022-11-19T18:16:16.821Z,100646.59
2022-11-19T18:18:43.628Z,100656.16
2022-11-19T18:21:15.673Z,100658.91
2022-11-19T18:23:44.193Z,100649.84
2022-11-19T18:26:15.817Z,100644.59
2022-11-19T18:28:43.806Z,100649.94
2022-11-19T18:31:26.576Z,100656.22
2022-11-19T18:33:54.888Z,100655.28
2022-11-19T18:36:21.949Z,100663.22
2022-11-19T18:38:48.861Z,100662.59
2022-11-19T18:41:18.817Z,100655.97
2022-11-19T18:44:03.993Z,100655.28
2022-11-19T18:46:30.662Z,100653.91
2022-11-19T18:48:57.222Z,100652.19
2022-11-19T18:51:31.223Z,100665.75
2022-11-19T18:53:57.965Z,100670.34
2022-11-19T18:56:24.643Z,100660.78
2022-11-19T18:58:52.201Z,100657.00
2022-11-19T19:01:18.797Z,100657.63
2022-11-19T19:03:45.369Z,100660.47
2022-11-19T19:06:12.186Z,100657.66
2022-11-19T19:08:38.984Z,100658.22
2022-11-19T19:11:26.257Z,100657.63
2022-11-19T19:13:52.950Z,100655.72
2022-11-19T19:16:19.444Z,100666.97
2022-11-19T19:18:45.938Z,100649.38
2022-11-19T19:21:14.290Z,100654.34
2022-11-19T19:23:41.456Z,100654.00
2022-11-19T19:26:09.130Z,100647.84
2022-11-19T19:28:35.944Z,100667.38
2022-11-19T19:31:02.647Z,100650.94
2022-11-19T19:33:29.405Z,100664.84
2022-11-19T19:35:56.256Z,100665.97
2022-11-19T19:38:22.735Z,100656.25
2022-11-19T19:40:49.329Z,100659.44
2022-11-19T19:43:15.811Z,100658.47
2022-11-19T19:45:42.253Z,100667.00
2022-11-19T19:48:08.835Z,100667.91
2022-11-19T19:50:35.253Z,100668.25
2022-11-19T19:53:01.802Z,100685.63
2022-11-19T19:55:28.238Z,100670.19
2022-11-19T19:57:55.158Z,100676.81
2022-11-19T20:00:23.560Z,100669.03
2022-11-19T20:02:50.200Z,100668.72
2022-11-19T20:05:16.666Z,100666.59
2022-11-19T20:07:43.207Z,100678.47
2022-11-19T20:10:10.094Z,100682.84
2022-11-19T20:12:55.234Z,100680.78
2022-11-19T20:15:21.655Z,100687.84
2022-11-19T20:17:48.133Z,100685.94
2022-11-19T20:20:14.603Z,100689.47
2022-11-19T20:22:41.046Z,100690.31
2022-11-19T20:25:07.836Z,100693.81
2022-11-19T20:27:34.283Z,100693.91
2022-11-19T20:30:00.708Z,100697.34
2022-11-19T20:32:27.130Z,100703.75
2022-11-19T20:34:53.595Z,100701.00
2022-11-19T20:37:20.137Z,100707.34
2022-11-19T20:39:46.631Z,100701.63
2022-11-19T20:42:31.785Z,100709.19
2022-11-19T20:44:58.228Z,100697.38
2022-11-19T20:47:24.685Z,100705.06
2022-11-19T20:49:51.140Z,100700.75
2022-11-19T20:52:19.015Z,100699.63
2022-11-19T20:54:45.460Z,100708.44
2022-11-19T20:57:12.247Z,100715.88
2022-11-19T20:59:38.841Z,100698.38
2022-11-19T21:02:06.013Z,100704.41
2022-11-19T21:04:36.513Z,100693.69
2022-11-19T21:07:04.442Z,100689.59
2022-11-19T21:09:31.173Z,100692.16
2022-11-19T21:11:57.671Z,100684.06
2022-11-19T21:14:24.238Z,100684.69
2022-11-19T21:16:50.741Z,100686.53
2022-11-19T21:19:17.253Z,100686.50
2022-11-19T21:21:45.310Z,100687.75
2022-11-19T21:24:11.883Z,100684.59
2022-11-19T21:26:38.426Z,100681.47
2022-11-19T21:29:04.886Z,100687.75
2022-11-19T21:31:45.307Z,100691.06
2022-11-19T21:34:17.798Z,100692.44
2022-11-19T21:36:46.282Z,100687.13
2022-11-19T21:39:14.665Z,100692.94
2022-11-19T21:41:41.111Z,100695.06
2022-11-19T21:44:08.077Z,100689.03
2022-11-19T21:46:35.029Z,100690.75
2022-11-19T21:49:01.866Z,100699.19
2022-11-19T21:51:28.690Z,100694.31
2022-11-19T21:53:58.427Z,100688.59
2022-11-19T21:56:26.763Z,100693.19
2022-11-19T21:58:53.248Z,100682.56
2022-11-19T22:01:19.867Z,100695.66
2022-11-19T22:03:46.474Z,100688.03
2022-11-19T22:06:13.033Z,100694.72
2022-11-19T22:08:41.623Z,100697.50
2022-11-19T22:11:28.049Z,100710.38
2022-11-19T22:13:55.935Z,100705.22
2022-11-19T22:16:22.713Z,100714.47
2022-11-19T22:18:49.239Z,100704.41
2022-11-19T22:21:16.051Z,100718.88
2022-11-19T22:23:42.792Z,100704.34
2022-11-19T22:26:11.422Z,100712.44
2022-11-19T22:28:38.274Z,100713.59
2022-11-19T22:31:05.349Z,100709.06
2022-11-19T22:33:39.510Z,100711.09
2022-11-19T22:36:09.898Z,100720.50
2022-11-19T22:38:38.471Z,100717.69
2022-11-19T22:41:10.970Z,100765.53
2022-11-19T22:43:38.849Z,100777.69
2022-11-19T22:46:07.065Z,100777.66
2022-11-19T22:48:34.274Z,100773.25
2022-11-19T22:51:12.617Z,100775.38
2022-11-19T22:53:39.978Z,100786.97
2022-11-19T22:56:08.928Z,100797.81
2022-11-19T22:58:36.370Z,100800.22
2022-11-19T23:01:03.704Z,100812.38
2022-11-19T23:03:30.182Z,100823.78
2022-11-19T23:05:56.845Z,100830.34
2022-11-19T23:08:23.344Z,100841.66
2022-11-19T23:11:00.220Z,100846.28
2022-11-19T23:13:32.711Z,100854.09
2022-11-19T23:16:01.872Z,100849.91
2022-11-19T23:18:29.706Z,100847.06
2022-11-19T23:21:01.796Z,100849.53
2022-11-19T23:23:28.337Z,100853.81
2022-11-19T23:25:59.065Z,100856.50
2022-11-19T23:28:27.168Z,100863.53
2022-11-19T23:30:53.963Z,100858.28
2022-11-19T23:33:20.802Z,100855.75
2022-11-19T23:35:47.902Z,100853.94
2022-11-19T23:38:15.167Z,100855.78
2022-11-19T23:40:41.653Z,100854.66
2022-11-19T23:43:08.134Z,100851.13
2022-11-19T23:45:35.932Z,100847.66
2022-11-19T23:48:03.194Z,100850.84
2022-11-19T23:50:29.965Z,100840.22
2022-11-19T23:52:56.375Z,100843.97
2022-11-19T23:55:22.810Z,100837.66
2022-11-19T23:57:49.304Z,100843.94
